createdAt,value
2022-08-21T00:04:57.210Z,1.20
2022-08-21T00:10:01.125Z,1.77
2022-08-21T00:15:06.715Z,1.20
2022-08-21T00:20:15.518Z,1.45
2022-08-21T00:25:24.231Z,1.50
2022-08-21T00:30:37.782Z,1.67
2022-08-21T00:35:44.227Z,1.60
2022-08-21T00:40:49.746Z,1.67
2022-08-21T00:51:27.616Z,1.70
2022-08-21T00:56:31.045Z,1.75
2022-08-21T01:01:35.956Z,1.80
2022-08-21T01:06:39.197Z,1.80
2022-08-21T01:11:44.065Z,1.70
2022-08-21T01:16:52.043Z,2.08
2022-08-21T01:21:58.015Z,1.80
2022-08-21T01:27:02.008Z,1.85
2022-08-21T01:32:08.645Z,2.30
2022-08-21T01:37:14.125Z,1.95
2022-08-21T01:42:18.839Z,1.60
2022-08-21T01:47:22.108Z,1.77
2022-08-21T01:52:27.084Z,1.95
2022-08-21T01:57:30.344Z,1.77
2022-08-21T02:02:33.587Z,1.77
2022-08-21T02:07:41.279Z,2.38
2022-08-21T02:12:44.637Z,1.67
2022-08-21T02:17:50.545Z,2.10
2022-08-21T02:22:55.329Z,1.58
2022-08-21T02:28:01.452Z,2.00
2022-08-21T02:33:04.658Z,1.90
2022-08-21T02:38:12.900Z,1.88
2022-08-21T02:43:17.230Z,2.28
2022-08-21T02:48:24.179Z,1.73
2022-08-21T02:53:29.991Z,2.22
2022-08-21T02:58:41.377Z,2.03
2022-08-21T03:03:46.635Z,2.08
2022-08-21T03:08:51.990Z,2.00
2022-08-21T03:13:55.311Z,2.38
2022-08-21T03:18:58.663Z,2.35
2022-08-21T03:24:04.265Z,2.10
2022-08-21T03:29:08.446Z,2.30
2022-08-21T03:34:11.833Z,2.42
2022-08-21T03:39:18.759Z,2.47
2022-08-21T03:44:22.007Z,2.35
2022-08-21T03:49:25.314Z,3.20
2022-08-21T03:54:30.067Z,2.30
2022-08-21T03:59:33.519Z,2.20
2022-08-21T04:04:37.182Z,2.28
2022-08-21T04:09:41.812Z,2.15
2022-08-21T04:14:45.596Z,2.13
2022-08-21T04:19:53.548Z,2.50
2022-08-21T04:24:58.476Z,2.22
2022-08-21T04:30:02.121Z,2.50
2022-08-21T04:35:08.251Z,2.40
2022-08-21T04:40:15.337Z,2.35
2022-08-21T04:45:23.093Z,2.45
2022-08-21T04:50:29.951Z,2.05
2022-08-21T04:55:35.017Z,2.20
2022-08-21T05:00:38.614Z,2.63
2022-08-21T05:05:43.736Z,2.42
2022-08-21T05:10:48.505Z,2.85
2022-08-21T05:15:51.687Z,2.67
2022-08-21T05:20:54.887Z,2.60
2022-08-21T05:25:59.464Z,2.63
2022-08-21T05:31:03.063Z,2.80
2022-08-21T05:36:06.690Z,3.00
2022-08-21T05:41:11.284Z,3.08
2022-08-21T05:46:14.506Z,3.42
2022-08-21T05:51:18.656Z,3.00
2022-08-21T05:56:23.303Z,3.58
2022-08-21T06:01:26.770Z,3.40
2022-08-21T06:06:30.050Z,3.22
2022-08-21T06:11:35.577Z,3.53
2022-08-21T06:16:38.807Z,3.50
2022-08-21T06:21:42.014Z,3.30
2022-08-21T06:26:51.830Z,2.40
2022-08-21T06:31:55.067Z,1.27
2022-08-21T06:36:58.827Z,1.08
2022-08-21T06:42:03.792Z,1.30
2022-08-21T06:47:07.139Z,1.30
2022-08-21T06:52:12.343Z,1.23
2022-08-21T06:57:20.840Z,0.90
2022-08-21T07:02:24.433Z,0.90
2022-08-21T07:07:28.227Z,0.93
2022-08-21T07:12:33.502Z,0.88
2022-08-21T07:17:37.181Z,1.02
2022-08-21T07:22:41.123Z,1.33
2022-08-21T07:27:45.703Z,1.20
2022-08-21T07:32:50.307Z,1.15
2022-08-21T07:37:53.603Z,1.23
2022-08-21T07:42:58.387Z,1.10
2022-08-21T07:48:01.661Z,1.00
2022-08-21T07:53:05.225Z,1.30
2022-08-21T07:58:11.154Z,1.05
2022-08-21T08:03:14.385Z,1.02
2022-08-21T08:08:23.713Z,1.10
2022-08-21T08:13:28.300Z,1.33
2022-08-21T08:18:31.648Z,1.30
2022-08-21T08:23:35.348Z,1.75
2022-08-21T08:28:40.664Z,1.40
2022-08-21T08:33:44.838Z,1.98
2022-08-21T08:38:52.235Z,1.90
2022-08-21T08:44:03.534Z,1.85
2022-08-21T08:49:16.401Z,1.92
2022-08-21T08:54:32.722Z,2.20
2022-08-21T08:59:43.891Z,1.90
2022-08-21T09:04:50.003Z,1.80
2022-08-21T09:10:11.957Z,1.67
2022-08-21T09:15:25.454Z,1.50
2022-08-21T09:20:35.842Z,1.90
2022-08-21T09:25:48.119Z,2.00
2022-08-21T09:30:56.496Z,2.40
2022-08-21T09:36:00.035Z,1.83
2022-08-21T09:41:05.941Z,1.88
2022-08-21T09:46:13.323Z,1.85
2022-08-21T09:51:18.918Z,1.63
2022-08-21T09:56:49.004Z,2.20
2022-08-21T10:01:59.499Z,2.08
2022-08-21T10:07:11.805Z,1.98
2022-08-21T10:12:24.237Z,1.73
2022-08-21T10:17:37.563Z,2.08
2022-08-21T10:22:52.294Z,1.80
2022-08-21T10:28:13.501Z,1.92
2022-08-21T10:33:30.297Z,1.70
2022-08-21T10:39:25.965Z,1.98
2022-08-21T10:44:44.742Z,1.77
2022-08-21T10:49:57.748Z,1.88
2022-08-21T10:55:08.808Z,2.05
2022-08-21T11:00:16.990Z,2.08
2022-08-21T11:05:32.614Z,1.90
2022-08-21T11:10:51.281Z,2.10
2022-08-21T11:16:07.784Z,2.28
2022-08-21T11:21:28.283Z,2.40
2022-08-21T11:26:39.953Z,1.77
2022-08-21T11:31:59.697Z,2.67
2022-08-21T11:37:12.980Z,7.13
2022-08-21T11:42:25.766Z,3.92
2022-08-21T11:47:42.757Z,1.80
2022-08-21T11:52:52.939Z,2.10
2022-08-21T11:58:00.243Z,1.70
2022-08-21T12:03:11.130Z,1.67
2022-08-21T12:08:29.946Z,1.77
2022-08-21T12:13:42.424Z,1.90
2022-08-21T12:18:46.621Z,1.77
2022-08-21T12:24:03.046Z,1.70
2022-08-21T12:34:51.923Z,1.80
2022-08-21T12:40:00.958Z,2.00
2022-08-21T12:45:07.384Z,1.85
2022-08-21T12:50:15.112Z,1.90
2022-08-21T12:55:29.608Z,1.58
2022-08-21T13:00:32.851Z,1.98
2022-08-21T13:05:39.360Z,1.80
2022-08-21T13:10:45.732Z,2.15
2022-08-21T13:15:49.447Z,1.63
2022-08-21T13:20:53.794Z,1.55
2022-08-21T13:25:59.957Z,1.83
2022-08-21T13:31:03.483Z,1.60
2022-08-21T13:36:11.393Z,1.95
2022-08-21T13:41:23.586Z,1.80
2022-08-21T13:46:30.001Z,1.60
2022-08-21T13:51:34.846Z,2.47
2022-08-21T13:56:46.753Z,1.70
2022-08-21T14:01:55.816Z,1.58
2022-08-21T14:06:59.225Z,1.50
2022-08-21T14:12:22.282Z,1.80
2022-08-21T14:17:36.337Z,1.58
2022-08-21T14:22:47.136Z,1.52
2022-08-21T14:27:54.759Z,1.70
2022-08-21T14:32:58.449Z,1.55
2022-08-21T14:38:01.903Z,1.73
2022-08-21T14:43:06.599Z,1.80
2022-08-21T14:48:10.007Z,1.42
2022-08-21T14:53:13.332Z,1.75
2022-08-21T14:58:18.027Z,1.30
2022-08-21T15:03:22.698Z,1.60
2022-08-21T15:08:28.161Z,1.50
2022-08-21T15:13:33.313Z,1.65
2022-08-21T15:18:36.741Z,1.70
2022-08-21T15:23:43.669Z,1.80
2022-08-21T15:28:48.788Z,1.33
2022-08-21T15:33:52.686Z,1.60
2022-08-21T15:38:55.853Z,1.55
2022-08-21T15:44:00.474Z,1.50
2022-08-21T15:49:03.818Z,1.50
2022-08-21T15:54:07.148Z,1.60
2022-08-21T15:59:19.188Z,1.30
2022-08-21T16:04:25.781Z,1.45
2022-08-21T16:09:29.077Z,1.40
2022-08-21T16:14:37.240Z,1.85
2022-08-21T16:19:40.666Z,1.58
2022-08-21T16:24:44.136Z,1.80
2022-08-21T16:29:50.278Z,1.85
2022-08-21T16:34:53.580Z,1.90
2022-08-21T16:39:58.008Z,1.60
2022-08-21T16:45:04.742Z,1.80
2022-08-21T16:50:09.228Z,1.88
2022-08-21T16:55:13.626Z,2.15
2022-08-21T17:00:23.075Z,2.03
2022-08-21T17:05:30.753Z,2.47
2022-08-21T17:10:34.458Z,2.10
2022-08-21T17:15:40.643Z,2.22
2022-08-21T17:20:44.397Z,2.42
2022-08-21T17:25:53.907Z,1.88
2022-08-21T17:31:02.445Z,2.10
2022-08-21T17:36:14.414Z,1.70
2022-08-21T17:41:20.652Z,1.98
2022-08-21T17:46:30.099Z,1.90
2022-08-21T17:51:33.601Z,1.80
2022-08-21T17:56:40.658Z,1.55
2022-08-21T18:01:47.200Z,1.80
2022-08-21T18:06:50.457Z,1.90
2022-08-21T18:11:53.683Z,1.90
2022-08-21T18:17:00.209Z,1.60
2022-08-21T18:22:06.873Z,2.03
2022-08-21T18:27:15.764Z,1.58
2022-08-21T18:32:31.763Z,2.00
2022-08-21T18:37:35.877Z,2.35
2022-08-21T18:42:43.291Z,1.88
2022-08-21T18:48:02.071Z,1.60
2022-08-21T18:53:24.279Z,1.70
2022-08-21T18:58:30.162Z,1.60
2022-08-21T19:03:35.075Z,1.70
2022-08-21T19:08:38.361Z,2.10
2022-08-21T19:13:43.229Z,2.08
2022-08-21T19:18:50.609Z,2.33
2022-08-21T19:23:54.014Z,1.88
2022-08-21T19:28:59.857Z,1.98
2022-08-21T19:34:08.196Z,2.35
2022-08-21T19:39:12.329Z,2.25
2022-08-21T19:44:23.661Z,2.28
2022-08-21T19:54:55.003Z,1.70
2022-08-21T19:59:58.716Z,1.80
2022-08-21T20:05:03.463Z,2.13
2022-08-21T20:10:07.884Z,2.30
2022-08-21T20:15:14.743Z,2.35
2022-08-21T20:20:23.615Z,2.20
2022-08-21T20:25:29.814Z,1.80
2022-08-21T20:30:33.557Z,1.90
2022-08-21T20:35:38.364Z,2.03
2022-08-21T20:40:41.868Z,1.45
2022-08-21T20:45:45.669Z,1.90
2022-08-21T20:50:54.297Z,1.85
2022-08-21T20:55:59.387Z,1.77
2022-08-21T21:01:07.906Z,2.30
2022-08-21T21:06:17.586Z,2.47
2022-08-21T21:11:25.835Z,1.73
2022-08-21T21:16:34.317Z,2.08
2022-08-21T21:21:41.972Z,2.22
2022-08-21T21:26:59.038Z,1.60
2022-08-21T21:32:02.439Z,1.80
2022-08-21T21:37:09.608Z,2.10
2022-08-21T21:42:29.806Z,2.25
2022-08-21T21:47:48.801Z,2.13
2022-08-21T21:53:12.570Z,1.83
2022-08-21T21:58:38.005Z,1.75
2022-08-21T22:03:48.407Z,1.95
2022-08-21T22:09:02.817Z,2.08
2022-08-21T22:14:12.523Z,2.03
2022-08-21T22:19:20.464Z,2.08
2022-08-21T22:24:29.925Z,1.92
2022-08-21T22:29:49.676Z,2.70
2022-08-21T22:35:04.054Z,2.40
2022-08-21T22:40:10.439Z,2.22
2022-08-21T22:45:22.506Z,2.33
2022-08-21T22:50:31.884Z,2.30
2022-08-21T22:55:43.628Z,2.47
2022-08-21T23:00:53.701Z,2.63
2022-08-21T23:06:00.562Z,2.70
2022-08-21T23:11:12.743Z,2.25
2022-08-21T23:16:47.478Z,2.20
2022-08-21T23:21:58.906Z,2.10
2022-08-21T23:27:14.812Z,2.28
2022-08-21T23:32:40.714Z,2.65
2022-08-21T23:37:55.165Z,2.80
2022-08-21T23:43:11.267Z,2.58
2022-08-21T23:48:29.673Z,2.28
2022-08-21T23:53:41.845Z,2.45
2022-08-21T23:59:04.313Z,2.63
